Time;durP1;ratioP1;P1;durP2;ratioP2;P2;SDS_P1;SDS_P2;PMS_P1;PMS_P2;Temp;Humidity;BMP_temperature;BMP_pressure;BME280_temperature;BME280_humidity;BME280_pressure;Samples;Min_cycle;Max_cycle;Signal;HPM_P1;HPM_P2
2023/07/11 00:02:12;;;;;;;5.78;3.80;;;22.20;80.70;;;;;;4916068;29;20078;-67
2023/07/11 00:04:38;;;;;;;8.10;3.88;;;22.20;80.40;;;;;;4914685;29;20035;-68
2023/07/11 00:07:03;;;;;;;5.85;3.60;;;22.20;80.10;;;;;;4915742;29;20115;-67
2023/07/11 00:09:32;;;;;;;5.32;3.70;;;22.20;80.10;;;;;;4914971;29;20111;-67
2023/07/11 00:11:57;;;;;;;3.60;3.08;;;22.20;80.20;;;;;;4915080;29;20039;-67
2023/07/11 00:14:23;;;;;;;6.45;3.22;;;22.20;80.40;;;;;;4898488;29;20118;-67
2023/07/11 00:16:54;;;;;;;3.50;3.20;;;22.10;80.50;;;;;;4914668;29;20047;-67
2023/07/11 00:19:20;;;;;;;6.03;3.40;;;22.10;80.80;;;;;;4915116;29;20040;-67
2023/07/11 00:21:46;;;;;;;3.38;2.97;;;22.10;93.50;;;;;;4914884;29;20162;-67
2023/07/11 00:24:15;;;;;;;3.90;3.20;;;22.00;94.90;;;;;;4914725;29;20032;-67
2023/07/11 00:26:41;;;;;;;4.40;3.65;;;22.00;96.80;;;;;;4914718;29;20036;-68
2023/07/11 00:29:20;;;;;;;3.65;2.58;;;21.90;97.10;;;;;;4914703;29;20068;-67
2023/07/11 00:31:45;;;;;;;3.50;3.17;;;21.80;97.10;;;;;;4914563;29;20048;-68
2023/07/11 00:34:11;;;;;;;3.55;3.03;;;21.80;97.90;;;;;;4914628;29;20410;-67
2023/07/11 00:36:37;;;;;;;4.45;3.53;;;21.70;97.90;;;;;;4914256;29;20040;-67
2023/07/11 00:39:04;;;;;;;3.50;3.00;;;21.60;98.30;;;;;;4914998;29;20032;-67
2023/07/11 00:41:30;;;;;;;4.32;3.17;;;21.60;98.20;;;;;;4917593;29;20446;-67
2023/07/11 00:43:56;;;;;;;5.78;3.50;;;21.50;99.90;;;;;;4918474;29;20822;-67
2023/07/11 00:46:25;;;;;;;4.57;3.53;;;;;;;;;;4919802;29;20035;-67
2023/07/11 00:48:58;;;;;;;4.65;3.33;;;;;;;;;;4915900;29;20222;-67
2023/07/11 00:51:27;;;;;;;4.80;3.67;;;;;;;;;;4916627;29;20055;-67
2023/07/11 00:53:53;;;;;;;5.15;3.45;;;;;;;;;;4906853;29;20570;-67
2023/07/11 00:56:21;;;;;;;3.88;3.47;;;;;;;;;;4920161;29;20032;-67
2023/07/11 00:58:48;;;;;;;3.60;3.30;;;;;;;;;;4920166;29;20091;-67
2023/07/11 01:01:14;;;;;;;5.15;3.40;;;;;;;;;;4921187;29;20024;-67
2023/07/11 01:03:40;;;;;;;4.68;3.53;;;;;;;;;;4920378;29;20477;-67
2023/07/11 01:06:14;;;;;;;3.85;3.22;;;;;;;;;;4921339;29;20096;-67
2023/07/11 01:08:40;;;;;;;5.85;3.28;;;;;;;;;;4919979;29;20112;-67
2023/07/11 01:11:06;;;;;;;3.17;2.88;;;;;;;;;;4920648;29;20514;-67
2023/07/11 01:13:32;;;;;;;5.68;3.78;;;;;;;;;;4920847;29;20382;-67
2023/07/11 01:16:00;;;;;;;5.15;3.90;;;21.20;99.90;;;;;;4920511;29;20497;-67
2023/07/11 01:18:26;;;;;;;5.38;3.42;;;;;;;;;;4913302;29;20032;-66
2023/07/11 01:20:52;;;;;;;3.80;3.35;;;;;;;;;;4919783;29;20099;-67
2023/07/11 01:23:18;;;;;;;3.97;3.58;;;;;;;;;;4921219;29;20123;-67
2023/07/11 01:25:44;;;;;;;5.40;3.33;;;;;;;;;;4919946;29;20492;-67
2023/07/11 01:28:12;;;;;;;5.80;4.10;;;;;;;;;;4920668;29;20070;-67
2023/07/11 01:30:39;;;;;;;4.63;3.75;;;;;;;;;;4919662;29;20059;-67
2023/07/11 01:33:05;;;;;;;5.80;4.03;;;;;;;;;;4920799;29;20048;-67
2023/07/11 01:35:31;;;;;;;6.18;3.90;;;;;;;;;;4919529;29;20119;-66
2023/07/11 01:38:00;;;;;;;6.28;3.67;;;;;;;;;;4920639;29;20517;-66
2023/07/11 01:40:26;;;;;;;4.97;3.97;;;;;;;;;;4919971;29;20109;-67
2023/07/11 01:42:52;;;;;;;6.30;3.63;;;;;;;;;;4920373;29;20036;-67
2023/07/11 01:45:18;;;;;;;4.85;4.07;;;;;;;;;;4920712;29;20024;-67
2023/07/11 01:47:45;;;;;;;5.10;3.70;;;;;;;;;;4920033;29;20492;-66
2023/07/11 01:50:11;;;;;;;4.45;3.63;;;;;;;;;;4920729;29;20099;-67
2023/07/11 01:52:37;;;;;;;7.18;3.65;;;;;;;;;;4919881;29;20028;-67
2023/07/11 01:55:03;;;;;;;3.88;3.47;;;;;;;;;;4920246;29;20035;-66
2023/07/11 01:57:29;;;;;;;8.20;3.83;;;;;;;;;;4920136;29;20560;-67
2023/07/11 01:59:55;;;;;;;5.55;3.47;;;;;;;;;;4919868;29;20135;-66
2023/07/11 02:02:21;;;;;;;7.20;4.07;;;;;;;;;;4920585;29;20084;-67
2023/07/11 02:04:47;;;;;;;12.68;4.40;;;;;;;;;;4919808;29;20382;-66
2023/07/11 02:07:13;;;;;;;5.03;3.55;;;;;;;;;;4918319;29;20032;-67
2023/07/11 02:09:39;;;;;;;6.63;3.53;;;;;;;;;;4916488;29;20020;-67
2023/07/11 02:12:05;;;;;;;5.53;3.50;;;;;;;;;;4917442;29;20386;-67
2023/07/11 02:14:31;;;;;;;3.90;3.10;;;;;;;;;;4917552;29;20032;-67
2023/07/11 02:17:00;;;;;;;4.97;3.70;;;;;;;;;;4916907;29;20043;-67
2023/07/11 02:19:26;;;;;;;5.85;3.20;;;;;;;;;;4917275;29;20032;-67
2023/07/11 02:21:52;;;;;;;3.90;3.55;;;;;;;;;;4916268;29;20036;-66
2023/07/11 02:24:18;;;;;;;6.90;3.83;;;;;;;;;;4917254;29;20115;-67
2023/07/11 02:26:45;;;;;;;6.18;3.90;;;;;;;;;;4916411;29;20095;-67
2023/07/11 02:29:11;;;;;;;7.78;4.07;;;;;;;;;;4915557;29;20470;-67
2023/07/11 02:31:37;;;;;;;5.28;3.58;;;;;;;;;;4916916;29;20119;-69
2023/07/11 02:34:04;;;;;;;6.68;4.35;;;;;;;;;;4916382;29;20052;-67
2023/07/11 02:36:30;;;;;;;4.07;3.67;;;;;;;;;;4917161;29;20553;-67
2023/07/11 02:38:56;;;;;;;4.70;3.50;;;;;;;;;;4916019;29;20087;-68
2023/07/11 02:41:22;;;;;;;4.57;3.53;;;;;;;;;;4917398;29;20058;-67
2023/07/11 02:43:48;;;;;;;4.00;3.50;;;;;;;;;;4915320;29;20084;-67
2023/07/11 02:46:15;;;;;;;7.07;4.05;;;;;;;;;;4917272;29;20111;-67
2023/07/11 02:48:42;;;;;;;4.38;3.45;;;;;;;;;;4915592;29;20086;-68
2023/07/11 02:51:08;;;;;;;3.92;3.47;;;;;;;;;;4916314;29;20429;-67
2023/07/11 02:53:34;;;;;;;4.75;3.88;;;;;;;;;;4916307;29;20111;-67
2023/07/11 02:56:00;;;;;;;4.32;3.53;;;;;;;;;;4916401;29;20118;-68
2023/07/11 02:58:26;;;;;;;6.32;4.22;;;;;;;;;;4916796;29;20084;-67
2023/07/11 03:00:55;;;;;;;4.78;4.03;;;;;;;;;;4915510;29;20028;-68
2023/07/11 03:03:21;;;;;;;5.10;4.07;;;;;;;;;;4916591;29;20111;-68
2023/07/11 03:05:48;;;;;;;4.07;3.67;;;;;;;;;;4915746;29;20036;-67
2023/07/11 03:08:17;;;;;;;8.80;4.30;;;;;;;;;;4916614;29;20091;-67
2023/07/11 03:10:43;;;;;;;5.53;3.78;;;;;;;;;;4915431;29;20024;-66
2023/07/11 03:13:09;;;;;;;5.30;4.30;;;;;;;;;;4899443;29;20385;-67
2023/07/11 03:15:39;;;;;;;6.20;4.30;;;;;;;;;;4915448;29;20035;-67
2023/07/11 03:18:07;;;;;;;4.30;3.90;;;;;;;;;;4915871;29;20070;-67
2023/07/11 03:20:37;;;;;;;6.05;4.20;;;;;;;;;;4915123;29;20276;-67
2023/07/11 03:23:03;;;;;;;4.03;3.58;;;;;;;;;;4916549;29;20141;-67
2023/07/11 03:25:29;;;;;;;5.60;4.15;;;;;;;;;;4915831;29;20028;-67
2023/07/11 03:27:58;;;;;;;6.28;4.35;;;;;;;;;;4914948;29;20024;-67
2023/07/11 03:30:27;;;;;;;4.40;3.92;;;;;;;;;;4915779;29;20024;-67
2023/07/11 03:32:53;;;;;;;4.50;4.03;;;;;;;;;;4914796;29;20563;-67
2023/07/11 03:35:19;;;;;;;5.28;4.13;;;;;;;;;;4915736;29;20036;-67
2023/07/11 03:37:45;;;;;;;5.43;4.25;;;;;;;;;;4915161;29;20482;-68
2023/07/11 03:40:11;;;;;;;6.80;4.20;;;;;;;;;;4915565;29;20031;-67
2023/07/11 03:42:37;;;;;;;5.57;4.00;;;;;;;;;;4915121;29;20466;-67
2023/07/11 03:45:03;;;;;;;6.20;4.40;;;;;;;;;;4915291;29;20032;-68
2023/07/11 03:47:29;;;;;;;5.43;4.32;;;;;;;;;;4915753;29;20454;-67
2023/07/11 03:49:55;;;;;;;6.45;4.32;;;;;;;;;;4914878;29;20135;-68
2023/07/11 03:52:24;;;;;;;5.80;4.70;;;;;;;;;;4915495;29;20028;-67
2023/07/11 03:54:50;;;;;;;5.88;4.25;;;;;;;;;;4915035;29;20043;-67
2023/07/11 03:57:16;;;;;;;6.57;4.20;;;;;;;;;;4915580;29;20071;-67
2023/07/11 03:59:45;;;;;;;6.53;4.28;;;;;;;;;;4914230;29;20028;-67
2023/07/11 04:02:14;;;;;;;8.13;4.68;;;;;;;;;;4915390;29;20064;-67
2023/07/11 04:04:42;;;;;;;6.88;4.07;;;;;;;;;;4914538;29;20024;-67
2023/07/11 04:07:08;;;;;;;6.57;3.90;;;;;;;;;;4916408;29;20099;-67
2023/07/11 04:09:34;;;;;;;5.40;4.30;;;;;;;;;;4897606;29;20415;-67
2023/07/11 04:12:00;;;;;;;5.75;4.03;;;;;;;;;;4915020;29;20529;-68
2023/07/11 04:14:26;;;;;;;5.65;4.20;;;;;;;;;;4915170;29;20046;-66
2023/07/11 04:16:52;;;;;;;9.48;4.75;;;;;;;;;;4914761;29;20044;-64
2023/07/11 04:19:18;;;;;;;9.20;4.63;;;;;;;;;;4914520;29;20039;-64
2023/07/11 04:21:44;;;;;;;7.00;4.55;;;;;;;;;;4912164;29;20028;-64
2023/07/11 04:24:10;;;;;;;4.85;4.05;;;;;;;;;;4914716;29;20474;-64
2023/07/11 04:26:36;;;;;;;7.45;4.82;;;;;;;;;;4914211;29;20028;-67
2023/07/11 04:29:02;;;;;;;6.88;4.30;;;;;;;;;;4914414;29;20537;-64
2023/07/11 04:31:28;;;;;;;7.55;4.80;;;;;;;;;;4915140;29;20099;-65
2023/07/11 04:33:54;;;;;;;5.63;3.92;;;;;;;;;;4913800;29;20120;-65
2023/07/11 04:36:20;;;;;;;7.00;4.45;;;;;;;;;;4915096;29;20409;-64
2023/07/11 04:38:46;;;;;;;7.32;4.20;;;;;;;;;;4913842;29;20028;-65
2023/07/11 04:41:15;;;;;;;8.10;4.53;;;;;;;;;;4915123;29;20028;-65
2023/07/11 04:43:41;;;;;;;5.15;3.92;;;;;;;;;;4913747;29;20020;-64
2023/07/11 04:46:07;;;;;;;4.50;4.10;;;;;;;;;;4915003;29;20408;-64
2023/07/11 04:48:36;;;;;;;6.07;4.57;;;;;;;;;;4915084;29;20035;-66
2023/07/11 04:51:06;;;;;;;6.35;4.40;;;;;;;;;;4915439;29;20055;-64
2023/07/11 04:53:33;;;;;;;8.13;4.82;;;;;;;;;;4915306;29;20024;-67
2023/07/11 04:56:00;;;;;;;5.65;4.50;;;;;;;;;;4915457;29;20032;-64
2023/07/11 04:58:29;;;;;;;7.22;4.85;;;;;;;;;;4915541;29;20032;-64
2023/07/11 05:00:59;;;;;;;6.38;5.05;;;;;;;;;;4913340;29;20534;-64
2023/07/11 05:03:25;;;;;;;7.60;5.03;;;;;;;;;;4915108;29;20080;-64
2023/07/11 05:05:51;;;;;;;6.13;5.13;;;;;;;;;;4908288;29;20036;-65
2023/07/11 05:08:17;;;;;;;6.10;4.38;;;;;;;;;;4914496;29;20113;-65
2023/07/11 05:11:02;;;;;;;9.55;5.13;;;;;;;;;;4913183;29;20143;-66
2023/07/11 05:13:28;;;;;;;7.50;5.40;;;;;;;;;;4915134;29;20060;-66
2023/07/11 05:16:01;;;;;;;7.43;5.47;;;;;;;;;;4894974;29;20205;-68
2023/07/11 05:18:27;;;;;;;7.63;4.97;;;;;;;;;;4911062;29;20096;-67
2023/07/11 05:20:56;;;;;;;6.85;5.05;;;;;;;;;;4913309;29;20245;-67
2023/07/11 05:23:23;;;;;;;6.53;5.17;;;;;;;;;;4913650;29;20122;-65
2023/07/11 05:25:49;;;;;;;8.50;5.32;;;;;;;;;;4912288;29;20486;-66
2023/07/11 05:28:16;;;;;;;9.38;5.10;;;;;;;;;;4913038;29;20035;-66
2023/07/11 05:30:42;;;;;;;8.20;5.35;;;;;;;;;;4912385;29;20075;-67
2023/07/11 05:33:08;;;;;;;6.65;5.28;;;;;;;;;;4912317;29;20048;-68
2023/07/11 05:35:37;;;;;;;7.70;5.65;;;;;;;;;;4912572;29;20493;-67
2023/07/11 05:38:08;;;;;;;8.63;5.43;;;;;;;;;;4913343;29;20028;-68
2023/07/11 05:40:34;;;;;;;11.05;6.05;;;;;;;;;;4913260;29;20035;-69
2023/07/11 05:43:00;;;;;;;7.55;5.78;;;;;;;;;;4916142;29;20028;-68
2023/07/11 05:45:26;;;;;;;8.32;5.55;;;;;;;;;;4916835;29;20025;-68
2023/07/11 05:47:52;;;;;;;7.03;5.88;;;;;;;;;;4916405;29;20032;-65
2023/07/11 05:50:21;;;;;;;7.75;5.63;;;;;;;;;;4917315;29;20052;-68
2023/07/11 05:52:47;;;;;;;8.88;5.78;;;;;;;;;;4917073;29;20028;-67
2023/07/11 05:55:13;;;;;;;8.55;5.00;;;;;;;;;;4912960;29;20371;-67
2023/07/11 05:57:39;;;;;;;6.90;5.72;;;;;;;;;;4917372;29;20112;-66
2023/07/11 06:00:08;;;;;;;9.20;5.72;;;;;;;;;;4917399;29;20020;-68
2023/07/11 06:02:35;;;;;;;8.68;6.30;;;;;;;;;;4917103;29;20028;-67
2023/07/11 06:05:01;;;;;;;8.95;6.03;;;;;;;;;;4916774;29;20103;-65
2023/07/11 06:07:28;;;;;;;8.23;5.97;;;;;;;;;;4917177;29;20036;-62
2023/07/11 06:09:55;;;;;;;10.63;5.88;;;;;;;;;;4916741;29;20645;-63
2023/07/11 06:12:21;;;;;;;7.20;5.55;;;;;;;;;;4899241;29;20025;-62
2023/07/11 06:14:47;;;;;;;11.07;5.60;;;;;;;;;;4910490;29;20016;-61
2023/07/11 06:17:13;;;;;;;11.75;6.30;;;;;;;;;;4909004;29;20332;-62
2023/07/11 06:19:39;;;;;;;7.00;5.60;;;;;;;;;;4915240;29;20032;-63
2023/07/11 06:22:05;;;;;;;10.00;5.85;;;;;;;;;;4916730;29;20020;-63
2023/07/11 06:24:31;;;;;;;9.20;5.75;;;;;;;;;;4913923;29;20028;-62
2023/07/11 06:26:57;;;;;;;8.05;5.80;;;;;;;;;;4915198;29;20520;-62
2023/07/11 06:29:23;;;;;;;10.55;6.65;;;;;;;;;;4916576;29;20032;-62
2023/07/11 06:31:50;;;;;;;10.85;6.38;;;;;;;;;;4914846;29;20043;-63
2023/07/11 06:34:16;;;;;;;9.02;5.55;;;;;;;;;;4916088;28;20059;-62
2023/07/11 06:36:42;;;;;;;7.85;5.32;;;;;;;;;;4915766;29;20127;-62
2023/07/11 06:39:08;;;;;;;7.80;5.60;;;;;;;;;;4916140;29;20481;-61
2023/07/11 06:41:34;;;;;;;10.23;5.85;;;;;;;;;;4914871;29;20496;-64
2023/07/11 06:44:00;;;;;;;9.57;6.20;;;;;;;;;;4914854;29;20039;-63
2023/07/11 06:46:26;;;;;;;8.57;5.68;;;;;;;;;;4917917;29;20028;-62
2023/07/11 06:48:54;;;;;;;8.15;5.90;;;;;;;;;;4909378;29;20167;-63
2023/07/11 06:51:20;;;;;;;15.48;6.32;;;;;;;;;;4915116;29;20381;-62
2023/07/11 06:53:46;;;;;;;8.07;5.28;;;;;;;;;;4914456;29;20032;-62
2023/07/11 06:56:15;;;;;;;7.35;5.90;;;;;;;;;;4914922;29;20039;-62
2023/07/11 06:58:40;;;;;;;10.80;6.10;;;;;;;;;;4915602;29;20493;-62
2023/07/11 07:01:07;;;;;;;7.95;5.80;;;;;;;;;;4914602;29;20055;-62
2023/07/11 07:03:33;;;;;;;10.77;5.63;;;;;;;;;;4914215;29;20675;-63
2023/07/11 07:06:05;;;;;;;6.95;5.93;;;;;;;;;;4917893;29;20036;-61
2023/07/11 07:08:31;;;;;;;5.78;5.22;;;;;;;;;;4915001;29;20046;-62
2023/07/11 07:10:57;;;;;;;11.00;5.85;;;;;;;;;;4917183;29;20028;-62
2023/07/11 07:13:24;;;;;;;7.70;5.13;;;;;;;;;;4914475;29;20031;-62
2023/07/11 07:15:51;;;;;;;7.80;4.85;;;;;;;;;;4913272;29;20028;-62
2023/07/11 07:18:17;;;;;;;9.35;5.50;;;;;;;;;;4914436;29;20486;-62
2023/07/11 07:20:44;;;;;;;7.68;5.38;;;;;;;;;;4913205;29;20103;-62
2023/07/11 07:23:10;;;;;;;64.60;7.32;;;;;;;;;;4915350;29;20481;-62
2023/07/11 07:25:36;;;;;;;8.30;5.35;;;;;;;;;;4914026;29;20039;-63
2023/07/11 07:28:03;;;;;;;8.70;5.95;;;;;;;;;;4917989;29;20510;-62
2023/07/11 07:30:31;;;;;;;8.93;5.30;;;;;;;;;;4913233;29;20036;-62
2023/07/11 07:32:59;;;;;;;9.27;5.15;;;;;;;;;;4911248;29;20092;-63
2023/07/11 07:35:24;;;;;;;8.73;5.20;;;26.70;99.90;;;;;;4911819;29;20024;-63
2023/07/11 07:37:52;;;;;;;7.43;5.85;;;;;;;;;;4914282;29;20508;-63
2023/07/11 07:40:18;;;;;;;7.78;5.20;;;;;;;;;;4914158;29;20035;-62
2023/07/11 07:42:44;;;;;;;7.15;5.40;;;;;;;;;;4913087;29;20044;-63
2023/07/11 07:45:10;;;;;;;8.73;6.32;;;;;;;;;;4912515;29;20524;-62
2023/07/11 07:47:36;;;;;;;9.10;5.70;;;;;;;;;;4911373;29;20058;-63
2023/07/11 07:50:03;;;;;;;11.30;6.25;;;;;;;;;;4913434;29;20170;-62
2023/07/11 07:52:29;;;;;;;13.70;6.15;;;;;;;;;;4914255;29;20095;-62
2023/07/11 07:54:56;;;;;;;7.68;5.65;;;;;;;;;;4912430;29;20115;-63
2023/07/11 07:57:21;;;;;;;10.98;5.97;;;28.00;99.90;;;;;;4913015;29;20063;-62
2023/07/11 07:59:52;;;;;;;7.28;5.18;;;28.00;99.90;;;;;;4912312;29;20470;-63
2023/07/11 08:02:21;;;;;;;7.53;5.85;;;28.10;99.10;;;;;;4913847;29;20047;-62
2023/07/11 08:04:48;;;;;;;9.02;5.53;;;28.20;95.40;;;;;;4912140;29;20118;-62
2023/07/11 08:07:17;;;;;;;11.93;5.60;;;28.30;81.90;;;;;;4913859;29;20035;-62
2023/07/11 08:09:43;;;;;;;10.05;5.05;;;28.50;81.00;;;;;;4915491;29;20126;-63
2023/07/11 08:12:11;;;;;;;6.78;5.03;;;28.80;79.00;;;;;;4914035;29;20119;-63
2023/07/11 08:14:38;;;;;;;8.57;5.32;;;28.90;79.30;;;;;;4911523;29;20518;-64
2023/07/11 08:17:04;;;;;;;8.77;5.10;;;29.10;78.80;;;;;;4909404;29;20036;-62
2023/07/11 08:19:30;;;;;;;10.52;5.72;;;29.30;78.70;;;;;;4913332;29;20068;-63
2023/07/11 08:21:55;;;;;;;6.15;5.05;;;29.50;78.50;;;;;;4913183;29;20047;-62
2023/07/11 08:24:21;;;;;;;7.90;4.57;;;29.70;78.20;;;;;;4913780;29;20043;-63
2023/07/11 08:26:47;;;;;;;11.00;5.72;;;29.90;77.80;;;;;;4912811;29;20131;-63
2023/07/11 08:29:13;;;;;;;9.63;5.95;;;30.10;77.20;;;;;;4912902;29;20060;-61
2023/07/11 08:31:39;;;;;;;6.60;4.70;;;30.30;76.60;;;;;;4912317;29;20111;-62
2023/07/11 08:34:04;;;;;;;9.45;5.57;;;30.40;76.80;;;;;;4912906;29;20486;-62
2023/07/11 08:36:32;;;;;;;8.95;5.32;;;30.50;76.40;;;;;;4913715;29;20091;-62
2023/07/11 08:38:57;;;;;;;6.50;5.05;;;30.70;76.90;;;;;;4912793;29;20041;-62
2023/07/11 08:41:44;;;;;;;6.35;5.32;;;30.70;75.60;;;;;;4913776;29;20028;-62
2023/07/11 08:44:38;;;;;;;13.00;5.38;;;30.80;76.30;;;;;;4908090;29;20590;-62
2023/07/11 08:47:28;;;;;;;10.15;4.85;;;31.00;75.90;;;;;;4910385;29;20581;-63
2023/07/11 08:49:57;;;;;;;;;;;31.00;75.50;;;;;;4909351;29;20028;-62
2023/07/11 08:52:25;;;;;;;8.73;5.43;;;31.10;75.90;;;;;;4914069;29;19915;-62
2023/07/11 08:55:02;;;;;;;6.38;5.32;;;31.10;75.40;;;;;;4912387;29;20393;-62
2023/07/11 08:57:33;;;;;;;8.82;5.22;;;31.10;75.50;;;;;;4906228;29;20505;-62
2023/07/11 09:00:18;;;;;;;11.43;6.07;;;31.20;75.60;;;;;;4912696;29;20042;-63
2023/07/11 09:03:03;;;;;;;6.90;5.45;;;31.20;75.90;;;;;;4912188;29;20119;-62
2023/07/11 09:05:37;;;;;;;10.25;5.70;;;31.30;76.40;;;;;;4912348;29;20450;-62
2023/07/11 09:08:03;;;;;;;9.45;5.20;;;31.40;75.60;;;;;;4913377;29;20058;-62
2023/07/11 09:10:48;;;;;;;9.23;6.03;;;31.60;75.30;;;;;;4913074;29;20465;-62
2023/07/11 09:13:35;;;;;;;10.23;6.47;;;31.80;75.60;;;;;;4907579;29;20051;-61
2023/07/11 09:16:12;;;;;;;11.70;6.30;;;31.90;76.10;;;;;;4913088;29;20123;-62
2023/07/11 09:18:47;;;;;;;6.57;5.07;;;32.10;76.70;;;;;;4916192;29;20028;-63
2023/07/11 09:21:24;;;;;;;7.82;5.95;;;32.10;76.20;;;;;;4916955;29;20079;-61
2023/07/11 09:23:55;;;;;;;10.85;6.00;;;32.20;75.20;;;;;;4915869;29;20036;-62
2023/07/11 09:26:35;;;;;;;6.47;5.85;;;32.30;74.30;;;;;;4916961;29;20449;-62
2023/07/11 09:29:05;;;;;;;8.52;5.35;;;32.40;74.20;;;;;;4909575;29;20060;-62
2023/07/11 09:31:39;;;;;;;7.88;5.53;;;32.50;74.20;;;;;;4916759;29;20103;-62
2023/07/11 09:34:23;;;;;;;10.55;5.90;;;32.60;74.00;;;;;;4915028;29;20050;-62
2023/07/11 09:36:55;;;;;;;7.57;5.38;;;32.80;73.50;;;;;;4912411;29;20048;-62
2023/07/11 09:39:33;;;;;;;9.20;6.07;;;33.00;73.10;;;;;;4922463;29;20038;-62
2023/07/11 09:42:23;;;;;;;7.57;5.53;;;33.00;72.70;;;;;;4911263;29;20054;-62
2023/07/11 09:45:19;;;;;;;10.82;6.03;;;33.00;72.60;;;;;;4912598;29;20492;-62
2023/07/11 09:48:05;;;;;;;8.20;5.40;;;33.10;72.30;;;;;;4919202;29;20437;-62
2023/07/11 09:51:00;;;;;;;6.25;5.60;;;33.00;72.30;;;;;;4912853;29;20083;-62
2023/07/11 09:53:28;;;;;;;7.88;6.10;;;33.10;72.70;;;;;;4913635;29;20056;-63
2023/07/11 09:55:56;;;;;;;9.98;6.07;;;33.20;71.70;;;;;;4914708;29;20090;-62
2023/07/11 09:58:22;;;;;;;10.82;5.93;;;33.40;71.40;;;;;;4917695;29;20469;-62
2023/07/11 10:00:50;;;;;;;8.27;6.03;;;33.40;78.30;;;;;;4921615;29;20036;-61
2023/07/11 10:03:21;;;;;;;11.35;5.75;;;33.40;73.70;;;;;;4920580;29;20409;-61
2023/07/11 10:05:50;;;;;;;11.30;5.93;;;33.50;74.20;;;;;;4916247;29;20474;-62
2023/07/11 10:08:21;;;;;;;11.48;5.72;;;;;;;;;;4916088;29;20107;-63
2023/07/11 10:10:49;;;;;;;7.53;5.43;;;33.90;70.30;;;;;;4921296;29;20120;-62
2023/07/11 10:13:17;;;;;;;8.65;5.35;;;34.00;70.50;;;;;;4916353;29;20103;-62
2023/07/11 10:15:46;;;;;;;11.45;5.80;;;34.10;70.30;;;;;;4917142;29;20024;-63
2023/07/11 10:18:17;;;;;;;8.18;5.57;;;;;;;;;;4914514;29;20393;-62
2023/07/11 10:20:47;;;;;;;6.18;5.40;;;;;;;;;;4922384;29;20434;-62
2023/07/11 10:23:14;;;;;;;8.48;5.80;;;;;;;;;;4918105;29;20020;-63
2023/07/11 10:25:44;;;;;;;9.95;6.38;;;;;;;;;;4917537;29;20028;-62
2023/07/11 10:28:27;;;;;;;9.85;5.80;;;;;;;;;;4915455;29;20055;-62
2023/07/11 10:30:54;;;;;;;7.68;6.25;;;;;;;;;;4913741;29;20099;-62
2023/07/11 10:33:32;;;;;;;6.85;5.20;;;;;;;;;;4917536;29;20399;-62
2023/07/11 10:36:05;;;;;;;7.25;6.15;;;;;;;;;;4918950;29;20151;-62
2023/07/11 10:38:44;;;;;;;8.38;5.70;;;;;;;;;;4917135;29;20055;-62
2023/07/11 10:41:15;;;;;;;11.15;5.82;;;;;;;;;;4916005;29;20032;-62
2023/07/11 10:43:41;;;;;;;12.00;5.97;;;;;;;;;;4920900;29;20363;-62
2023/07/11 10:46:14;;;;;;;8.23;5.90;;;;;;;;;;4916360;29;20061;-62
2023/07/11 10:48:43;;;;;;;7.70;6.15;;;;;;;;;;4919746;29;20422;-63
2023/07/11 10:51:17;;;;;;;5.90;5.30;;;;;;;;;;4916599;29;20035;-62
2023/07/11 10:53:59;;;;;;;8.40;5.88;;;;;;;;;;4915007;29;20545;-62
2023/07/11 10:56:30;;;;;;;8.23;5.43;;;;;;;;;;4918071;29;20071;-63
2023/07/11 10:58:58;;;;;;;9.40;5.85;;;;;;;;;;4919579;29;20027;-62
2023/07/11 11:01:24;;;;;;;8.82;6.30;;;;;;;;;;4916129;29;20042;-61
2023/07/11 11:03:55;;;;;;;8.90;6.60;;;;;;;;;;4915270;29;20111;-61
2023/07/11 11:06:21;;;;;;;7.82;6.20;;;;;;;;;;4916538;29;20032;-61
2023/07/11 11:08:52;;;;;;;9.25;6.18;;;;;;;;;;4914666;29;20526;-61
2023/07/11 11:11:37;;;;;;;13.63;5.85;;;;;;;;;;4908324;29;20474;-61
2023/07/11 11:14:19;;;;;;;8.18;5.80;;;;;;;;;;4915753;29;20044;-61
2023/07/11 11:16:55;;;;;;;7.70;6.20;;;;;;;;;;4920543;29;20378;-62
2023/07/11 11:19:24;;;;;;;8.23;6.18;;;;;;;;;;4916683;29;20052;-61
2023/07/11 11:21:59;;;;;;;8.00;5.40;;;;;;;;;;4916937;29;20713;-62
2023/07/11 11:24:37;;;;;;;8.43;6.32;;;;;;;;;;4917407;29;20028;-62
2023/07/11 11:27:06;;;;;;;9.38;6.43;;;;;;;;;;4910104;29;20047;-61
2023/07/11 11:29:32;;;;;;;9.27;6.00;;;;;;;;;;4915552;29;20036;-65
2023/07/11 11:32:07;;;;;;;9.32;6.40;;;;;;;;;;4915039;29;20035;-62
2023/07/11 11:34:46;;;;;;;9.95;6.00;;;;;;;;;;4919578;29;20044;-63
2023/07/11 11:37:26;;;;;;;7.82;6.05;;;;;;;;;;4911989;29;20036;-61
2023/07/11 11:40:13;;;;;;;7.40;5.57;;;;;;;;;;4914968;29;20139;-62
2023/07/11 11:42:42;;;;;;;12.25;6.70;;;37.10;65.40;;;;;;4915867;29;20024;-61
2023/07/11 11:45:21;;;;;;;13.07;6.50;;;37.00;65.70;;;;;;4914766;29;20476;-61
2023/07/11 11:47:49;;;;;;;6.97;5.60;;;37.00;65.60;;;;;;4917319;29;20074;-60
2023/07/11 11:50:18;;;;;;;8.90;6.47;;;36.80;65.40;;;;;;4910003;29;20032;-61
2023/07/11 11:52:44;;;;;;;18.60;6.50;;;36.60;65.80;;;;;;4916000;29;20062;-61
2023/07/11 11:55:37;;;;;;;13.77;6.32;;;36.70;66.10;;;;;;4915903;29;20461;-61
2023/07/11 11:58:04;;;;;;;9.75;7.07;;;37.10;65.60;;;;;;4914207;29;20055;-61
2023/07/11 12:00:54;;;;;;;12.85;6.70;;;37.60;65.10;;;;;;4920561;29;20042;-61
2023/07/11 12:03:44;;;;;;;7.47;5.95;;;38.00;64.50;;;;;;4910855;29;20047;-61
2023/07/11 12:06:36;;;;;;;9.77;6.10;;;38.30;63.00;;;;;;4914296;29;20039;-61
2023/07/11 12:09:19;;;;;;;10.27;5.47;;;38.40;63.00;;;;;;4913168;29;20082;-61
2023/07/11 12:12:04;;;;;;;10.02;5.72;;;38.10;62.90;;;;;;4907011;29;20036;-61
2023/07/11 12:14:52;;;;;;;8.18;5.68;;;37.70;63.10;;;;;;4922340;29;20087;-61
2023/07/11 12:17:29;;;;;;;8.00;5.32;;;37.40;63.50;;;;;;4908157;29;20631;-61
2023/07/11 12:20:01;;;;;;;6.85;5.28;;;37.10;64.00;;;;;;4912488;29;20050;-61
2023/07/11 12:22:30;;;;;;;7.20;5.70;;;37.00;64.40;;;;;;4914268;29;20032;-62
2023/07/11 12:24:58;;;;;;;;;;;37.10;65.10;;;;;;4922079;29;20035;-62
2023/07/11 12:27:23;;;;;;;6.25;5.57;;;37.10;65.10;;;;;;4914484;29;20368;-62
2023/07/11 12:29:51;;;;;;;14.07;6.32;;;37.30;65.00;;;;;;4912793;29;20038;-62
2023/07/11 12:32:32;;;;;;;8.63;6.20;;;37.30;64.70;;;;;;4913689;29;20486;-62
2023/07/11 12:35:04;;;;;;;8.48;6.13;;;37.20;64.70;;;;;;4912641;29;20046;-63
2023/07/11 12:37:46;;;;;;;7.63;6.15;;;37.30;64.40;;;;;;4913445;29;20187;-62
2023/07/11 12:40:15;;;;;;;11.40;6.32;;;37.40;64.90;;;;;;4912521;29;20466;-62
2023/07/11 12:42:58;;;;;;;8.57;6.03;;;37.30;64.50;;;;;;4913074;29;20032;-62
2023/07/11 12:45:35;;;;;;;7.35;6.18;;;37.20;64.70;;;;;;4912819;29;20107;-62
2023/07/11 12:48:12;;;;;;;10.23;6.15;;;37.50;64.40;;;;;;4913829;29;20405;-63
2023/07/11 12:50:52;;;;;;;7.68;5.55;;;37.80;63.50;;;;;;4910404;29;20032;-61
2023/07/11 12:53:18;;;;;;;8.00;5.78;;;37.80;63.20;;;;;;4913071;29;20095;-61
2023/07/11 12:55:45;;;;;;;9.65;6.00;;;37.80;63.20;;;;;;4912163;29;20039;-64
2023/07/11 12:58:24;;;;;;;10.63;6.00;;;37.80;63.20;;;;;;4908639;29;20087;-63
2023/07/11 13:00:52;;;;;;;5.70;4.95;;;37.90;62.60;;;;;;4903209;29;20028;-64
2023/07/11 13:03:37;;;;;;;8.50;5.75;;;38.20;62.00;;;;;;4911245;29;20342;-60
2023/07/11 13:06:16;;;;;;;7.28;5.15;;;38.30;62.40;;;;;;4908731;29;20038;-62
2023/07/11 13:08:41;;;;;;;7.72;5.85;;;38.20;61.90;;;;;;4911807;29;20115;-64
2023/07/11 13:11:22;;;;;;;11.50;5.63;;;37.90;62.30;;;;;;4912279;29;20111;-64
2023/07/11 13:13:49;;;;;;;7.95;5.70;;;37.50;62.40;;;;;;4908485;29;20401;-64
2023/07/11 13:16:15;;;;;;;11.88;6.18;;;37.30;62.50;;;;;;4911266;29;20055;-65
2023/07/11 13:18:48;;;;;;;10.27;5.38;;;37.20;62.80;;;;;;4910869;29;20028;-64
2023/07/11 13:21:15;;;;;;;6.60;5.38;;;37.30;62.50;;;;;;4909866;29;20041;-63
2023/07/11 13:23:43;;;;;;;9.05;6.13;;;37.60;62.20;;;;;;4910462;29;20500;-63
2023/07/11 13:26:19;;;;;;;6.22;5.63;;;38.00;61.60;;;;;;4912493;29;20525;-63
2023/07/11 13:28:54;;;;;;;8.40;5.70;;;38.40;61.00;;;;;;4910959;29;20119;-63
2023/07/11 13:31:22;;;;;;;7.15;6.03;;;;;;;;;;4908029;29;20481;-62
2023/07/11 13:34:02;;;;;;;8.43;6.43;;;39.00;59.40;;;;;;4910544;29;20067;-63
2023/07/11 13:36:31;;;;;;;10.27;6.43;;;39.20;59.60;;;;;;4911717;29;20052;-64
2023/07/11 13:39:05;;;;;;;9.30;6.20;;;39.30;58.80;;;;;;4911094;29;20170;-63
2023/07/11 13:41:36;;;;;;;7.05;6.35;;;39.40;58.70;;;;;;4912253;29;20490;-63
2023/07/11 13:44:31;;;;;;;9.55;6.32;;;39.20;58.90;;;;;;4911993;29;20036;-63
2023/07/11 13:47:10;;;;;;;9.20;6.40;;;39.10;59.60;;;;;;4907894;29;20127;-62
2023/07/11 13:49:38;;;;;;;;;;;38.80;60.10;;;;;;4904554;29;20029;-65
2023/07/11 13:52:05;;;;;;;8.63;6.20;;;38.50;60.70;;;;;;4911993;29;19945;-62
2023/07/11 13:54:37;;;;;;;11.73;5.88;;;38.30;61.10;;;;;;4910101;29;20051;-63
2023/07/11 13:57:04;;;;;;;6.97;5.65;;;38.00;61.20;;;;;;4911947;29;20040;-62
2023/07/11 13:59:33;;;;;;;9.43;6.57;;;37.70;61.90;;;;;;4911936;29;20028;-63
2023/07/11 14:01:59;;;;;;;;;;;37.80;61.30;;;;;;4911907;29;20032;-62
2023/07/11 14:04:33;;;;;;;8.60;6.25;;;38.00;60.90;;;;;;4914396;29;19918;-63
2023/07/11 14:07:01;;;;;;;9.23;6.47;;;38.30;60.80;;;;;;4908972;29;20047;-62
2023/07/11 14:09:29;;;;;;;7.77;6.83;;;38.60;60.80;;;;;;4915028;29;20028;-62